Chubu Centrair International Airport
RJGG : rendu visible

Aérodrome :











RETROUVEZ-NOUS SUR...

 
LOGIN :

S'inscrire | Disclaimer

   EN    FR    IT 

 









Légende :    VFR   VFR Marginal   IFR   IFR Intensif   IFR Très Intensif
Visi : 
Plafond : 
>= 8 km
>= 3000ft
5 à 8 km
1000 à 3000 ft
1500m à 5 km
500 à 1000 ft
800 à 1500m
200 à 500 ft
< 800m
< 200 ft
Symboles :   Orages  Brouillard  Fortes neiges  Fortes précipitations  Vent > 20 kt






- Altitude de l'aérodrome : 15 ft
- Code IATA : NGO


RJGG - Chubu Centrair International

DERNIER METAR :
  • 051200Z 11010KT 9000 FEW030 27/24 Q1016 NOSIG

METARs EXPIRÉS :
  • 051130Z 13010KT 9000 FEW030 28/24 Q1015 NOSIG
  • 051100Z 13009KT 9000 FEW030 27/24 Q1015 NOSIG
  • 051030Z 13009KT 7000 FEW030 28/24 Q1015 NOSIG
  • 051000Z 12010KT 8000 FEW025 28/23 Q1015 NOSIG

TAF TAF RJGG
Valide du 05 à 12h jusqu'au 06 à 18h UTC


051105Z 0512/0618 12010KT 7000 FEW020
FIR RJJJ / Asie



MET'MAP, la Météo Aéronautique d'un coup d'oeil ! - Copyright ORBIFLY Décembre 2007 - Disclaimer

ORBIFLY MET'MAP TEAM :

Programmation & Développement : Alexandra Zaïnal
Sur une idée originale de : Baudouin d'Aumeries
Assistance à la programmation : Marc-Olivier Méhu
Soutien technique & logistique : Manuel Goepfert

Contact : metmap@orbifly.com




SOURCES & CREDITS :

   NOAA       Earth
Advisory